sensor_id;sensor_type;location;lat;lon;timestamp;pressure;altitude;pressure_sealevel;temperature;humidity
58668;BME280;59852;43.086;25.634;2022-10-22T00:00:05;99623.81;;;10.40;61.15
58668;BME280;59852;43.086;25.634;2022-10-22T00:02:31;99621.28;;;10.38;61.29
58668;BME280;59852;43.086;25.634;2022-10-22T00:04:56;99620.63;;;10.34;61.19
58668;BME280;59852;43.086;25.634;2022-10-22T00:07:21;99611.84;;;10.20;60.86
58668;BME280;59852;43.086;25.634;2022-10-22T00:09:47;99609.25;;;10.36;61.76
58668;BME280;59852;43.086;25.634;2022-10-22T00:12:13;99615.03;;;10.41;61.31
58668;BME280;59852;43.086;25.634;2022-10-22T00:14:39;99606.97;;;10.29;61.36
58668;BME280;59852;43.086;25.634;2022-10-22T00:17:04;99598.38;;;10.27;61.39
58668;BME280;59852;43.086;25.634;2022-10-22T00:19:30;99599.72;;;10.34;60.81
58668;BME280;59852;43.086;25.634;2022-10-22T00:21:55;99600.97;;;10.27;61.86
58668;BME280;59852;43.086;25.634;2022-10-22T00:24:22;99594.31;;;10.38;61.09
58668;BME280;59852;43.086;25.634;2022-10-22T00:26:47;99594.72;;;10.46;61.91
58668;BME280;59852;43.086;25.634;2022-10-22T00:29:12;99598.16;;;10.46;61.61
58668;BME280;59852;43.086;25.634;2022-10-22T00:31:38;99591.13;;;10.32;61.34
58668;BME280;59852;43.086;25.634;2022-10-22T00:34:03;99595.00;;;10.25;61.32
58668;BME280;59852;43.086;25.634;2022-10-22T00:36:28;99588.84;;;10.26;61.05
58668;BME280;59852;43.086;25.634;2022-10-22T00:38:54;99588.09;;;10.24;61.19
58668;BME280;59852;43.086;25.634;2022-10-22T00:41:19;99585.47;;;10.24;61.54
58668;BME280;59852;43.086;25.634;2022-10-22T00:43:52;99579.03;;;10.30;62.00
58668;BME280;59852;43.086;25.634;2022-10-22T00:46:17;99584.63;;;10.08;60.83
58668;BME280;59852;43.086;25.634;2022-10-22T00:48:42;99579.97;;;10.13;61.76
58668;BME280;59852;43.086;25.634;2022-10-22T00:51:08;99575.50;;;10.15;60.90
58668;BME280;59852;43.086;25.634;2022-10-22T00:53:34;99576.59;;;10.11;61.84
58668;BME280;59852;43.086;25.634;2022-10-22T00:56:01;99572.06;;;10.15;61.74
58668;BME280;59852;43.086;25.634;2022-10-22T00:58:28;99575.41;;;10.17;62.36
58668;BME280;59852;43.086;25.634;2022-10-22T01:00:54;99571.81;;;10.03;61.58
58668;BME280;59852;43.086;25.634;2022-10-22T01:03:19;99567.00;;;9.96;61.33
58668;BME280;59852;43.086;25.634;2022-10-22T01:06:06;99563.13;;;10.03;62.93
58668;BME280;59852;43.086;25.634;2022-10-22T01:08:49;99560.25;;;10.07;62.21
58668;BME280;59852;43.086;25.634;2022-10-22T01:14:09;99553.19;;;9.94;62.12
58668;BME280;59852;43.086;25.634;2022-10-22T01:16:44;99551.25;;;9.97;61.51
58668;BME280;59852;43.086;25.634;2022-10-22T01:19:35;99544.47;;;10.09;61.49
58668;BME280;59852;43.086;25.634;2022-10-22T01:22:08;99543.81;;;10.05;61.81
58668;BME280;59852;43.086;25.634;2022-10-22T01:29:49;99538.16;;;9.82;62.07
58668;BME280;59852;43.086;25.634;2022-10-22T01:32:20;99546.25;;;9.93;62.09
58668;BME280;59852;43.086;25.634;2022-10-22T01:34:48;99540.44;;;9.88;62.19
58668;BME280;59852;43.086;25.634;2022-10-22T01:37:14;99548.63;;;9.82;62.33
58668;BME280;59852;43.086;25.634;2022-10-22T01:39:42;99535.22;;;9.88;62.06
58668;BME280;59852;43.086;25.634;2022-10-22T01:42:10;99532.84;;;9.83;62.41
58668;BME280;59852;43.086;25.634;2022-10-22T01:44:36;99534.63;;;9.83;62.19
58668;BME280;59852;43.086;25.634;2022-10-22T01:49:50;99534.97;;;9.76;62.64
58668;BME280;59852;43.086;25.634;2022-10-22T01:52:24;99528.22;;;9.72;62.53
58668;BME280;59852;43.086;25.634;2022-10-22T01:54:58;99531.69;;;9.57;62.39
58668;BME280;59852;43.086;25.634;2022-10-22T01:59:56;99534.47;;;9.54;62.58
58668;BME280;59852;43.086;25.634;2022-10-22T02:04:54;99540.31;;;9.75;62.54
58668;BME280;59852;43.086;25.634;2022-10-22T02:07:22;99535.41;;;9.69;62.06
58668;BME280;59852;43.086;25.634;2022-10-22T02:09:50;99534.47;;;9.54;62.77
58668;BME280;59852;43.086;25.634;2022-10-22T02:12:16;99532.78;;;9.53;62.58
58668;BME280;59852;43.086;25.634;2022-10-22T02:14:43;99526.97;;;9.48;62.24
58668;BME280;59852;43.086;25.634;2022-10-22T02:17:12;99531.44;;;9.46;62.38
58668;BME280;59852;43.086;25.634;2022-10-22T02:19:55;99535.31;;;9.55;62.87
58668;BME280;59852;43.086;25.634;2022-10-22T02:22:22;99535.38;;;9.53;62.89
58668;BME280;59852;43.086;25.634;2022-10-22T02:24:48;99534.47;;;9.54;62.75
58668;BME280;59852;43.086;25.634;2022-10-22T02:29:45;99533.78;;;9.51;62.39
58668;BME280;59852;43.086;25.634;2022-10-22T02:32:15;99540.03;;;9.48;62.58
58668;BME280;59852;43.086;25.634;2022-10-22T02:34:42;99536.75;;;9.44;62.91
58668;BME280;59852;43.086;25.634;2022-10-22T02:37:10;99539.50;;;9.41;62.91
58668;BME280;59852;43.086;25.634;2022-10-22T02:39:36;99539.38;;;9.44;62.40
58668;BME280;59852;43.086;25.634;2022-10-22T02:42:02;99540.56;;;9.55;62.81
58668;BME280;59852;43.086;25.634;2022-10-22T02:44:28;99535.03;;;9.43;62.88
58668;BME280;59852;43.086;25.634;2022-10-22T02:46:53;99534.72;;;9.49;62.38
58668;BME280;59852;43.086;25.634;2022-10-22T02:49:18;99522.56;;;9.33;63.30
58668;BME280;59852;43.086;25.634;2022-10-22T02:51:44;99527.28;;;9.42;63.29
58668;BME280;59852;43.086;25.634;2022-10-22T02:54:09;99521.31;;;9.40;63.23
58668;BME280;59852;43.086;25.634;2022-10-22T02:56:34;99515.16;;;9.41;63.15
58668;BME280;59852;43.086;25.634;2022-10-22T02:59:00;99515.00;;;9.28;62.83
58668;BME280;59852;43.086;25.634;2022-10-22T03:01:25;99520.34;;;9.09;63.77
58668;BME280;59852;43.086;25.634;2022-10-22T03:03:50;99511.84;;;9.22;62.95
58668;BME280;59852;43.086;25.634;2022-10-22T03:06:16;99500.94;;;9.15;63.28
58668;BME280;59852;43.086;25.634;2022-10-22T03:08:42;99504.13;;;9.20;63.16
58668;BME280;59852;43.086;25.634;2022-10-22T03:11:07;99506.16;;;9.31;62.89
58668;BME280;59852;43.086;25.634;2022-10-22T03:13:32;99503.00;;;9.24;63.24
58668;BME280;59852;43.086;25.634;2022-10-22T03:15:58;99515.06;;;9.27;62.90
58668;BME280;59852;43.086;25.634;2022-10-22T03:18:23;99511.72;;;9.40;62.45
58668;BME280;59852;43.086;25.634;2022-10-22T03:20:49;99516.59;;;9.31;62.85
58668;BME280;59852;43.086;25.634;2022-10-22T03:23:15;99502.97;;;9.26;62.69
58668;BME280;59852;43.086;25.634;2022-10-22T03:25:43;99502.16;;;9.24;62.70
58668;BME280;59852;43.086;25.634;2022-10-22T03:28:11;99493.00;;;9.32;62.61
58668;BME280;59852;43.086;25.634;2022-10-22T03:30:38;99486.38;;;9.27;62.49
58668;BME280;59852;43.086;25.634;2022-10-22T03:33:03;99481.16;;;9.27;63.64
58668;BME280;59852;43.086;25.634;2022-10-22T03:35:29;99479.53;;;9.24;63.19
58668;BME280;59852;43.086;25.634;2022-10-22T03:37:54;99481.72;;;9.16;63.62
58668;BME280;59852;43.086;25.634;2022-10-22T03:40:20;99483.41;;;9.17;63.53
58668;BME280;59852;43.086;25.634;2022-10-22T03:42:45;99477.16;;;9.19;63.29
58668;BME280;59852;43.086;25.634;2022-10-22T03:45:11;99483.75;;;9.27;62.92
58668;BME280;59852;43.086;25.634;2022-10-22T03:47:36;99485.03;;;9.35;63.24
58668;BME280;59852;43.086;25.634;2022-10-22T03:50:02;99476.34;;;9.35;62.94
58668;BME280;59852;43.086;25.634;2022-10-22T03:52:27;99480.75;;;9.34;63.40
58668;BME280;59852;43.086;25.634;2022-10-22T03:54:53;99474.84;;;9.46;62.39
58668;BME280;59852;43.086;25.634;2022-10-22T03:57:18;99470.78;;;9.41;63.16
58668;BME280;59852;43.086;25.634;2022-10-22T03:59:44;99473.38;;;9.41;63.64
58668;BME280;59852;43.086;25.634;2022-10-22T04:02:10;99475.50;;;9.34;64.93
58668;BME280;59852;43.086;25.634;2022-10-22T04:04:36;99472.22;;;9.31;64.36
58668;BME280;59852;43.086;25.634;2022-10-22T04:07:02;99471.44;;;9.13;63.79
58668;BME280;59852;43.086;25.634;2022-10-22T04:09:29;99472.97;;;9.17;64.27
58668;BME280;59852;43.086;25.634;2022-10-22T04:11:55;99468.66;;;9.32;66.45
58668;BME280;59852;43.086;25.634;2022-10-22T04:14:20;99458.31;;;9.14;64.57
58668;BME280;59852;43.086;25.634;2022-10-22T04:16:46;99458.09;;;9.35;64.81
58668;BME280;59852;43.086;25.634;2022-10-22T04:19:11;99447.63;;;9.19;64.42
58668;BME280;59852;43.086;25.634;2022-10-22T04:21:37;99447.53;;;9.05;65.02
58668;BME280;59852;43.086;25.634;2022-10-22T04:24:02;99447.41;;;8.90;64.66
58668;BME280;59852;43.086;25.634;2022-10-22T04:26:27;99443.16;;;9.05;65.42
58668;BME280;59852;43.086;25.634;2022-10-22T04:28:53;99441.44;;;8.88;64.77
58668;BME280;59852;43.086;25.634;2022-10-22T04:31:19;99439.09;;;9.00;65.44
58668;BME280;59852;43.086;25.634;2022-10-22T04:33:45;99445.41;;;9.11;64.74
58668;BME280;59852;43.086;25.634;2022-10-22T04:36:15;99437.69;;;9.10;64.43
58668;BME280;59852;43.086;25.634;2022-10-22T04:38:41;99433.38;;;9.09;64.90
58668;BME280;59852;43.086;25.634;2022-10-22T04:41:14;99430.50;;;9.13;64.93
58668;BME280;59852;43.086;25.634;2022-10-22T04:43:40;99425.50;;;9.26;64.40
58668;BME280;59852;43.086;25.634;2022-10-22T04:46:06;99425.63;;;9.23;64.61
58668;BME280;59852;43.086;25.634;2022-10-22T04:48:33;99432.38;;;9.11;63.98
58668;BME280;59852;43.086;25.634;2022-10-22T04:50:59;99436.34;;;9.34;65.10
58668;BME280;59852;43.086;25.634;2022-10-22T04:53:24;99441.16;;;9.26;64.30
58668;BME280;59852;43.086;25.634;2022-10-22T04:55:50;99445.38;;;9.44;63.84
58668;BME280;59852;43.086;25.634;2022-10-22T04:58:15;99444.44;;;9.45;63.90
58668;BME280;59852;43.086;25.634;2022-10-22T05:00:40;99443.50;;;9.46;64.49
58668;BME280;59852;43.086;25.634;2022-10-22T05:03:06;99440.53;;;9.53;62.54
58668;BME280;59852;43.086;25.634;2022-10-22T05:05:31;99434.13;;;9.58;63.61
58668;BME280;59852;43.086;25.634;2022-10-22T05:07:57;99436.19;;;9.83;63.54
58668;BME280;59852;43.086;25.634;2022-10-22T05:10:22;99432.38;;;9.89;61.41
58668;BME280;59852;43.086;25.634;2022-10-22T05:12:47;99437.50;;;10.36;62.55
58668;BME280;59852;43.086;25.634;2022-10-22T05:15:13;99442.09;;;11.04;61.10
58668;BME280;59852;43.086;25.634;2022-10-22T05:17:38;99441.84;;;12.29;55.41
58668;BME280;59852;43.086;25.634;2022-10-22T05:20:03;99439.66;;;11.56;59.09
58668;BME280;59852;43.086;25.634;2022-10-22T05:22:29;99443.50;;;10.95;59.50
58668;BME280;59852;43.086;25.634;2022-10-22T05:24:54;99440.41;;;11.17;57.91
58668;BME280;59852;43.086;25.634;2022-10-22T05:27:19;99435.75;;;12.16;57.25
58668;BME280;59852;43.086;25.634;2022-10-22T05:29:45;99445.97;;;11.81;55.80
58668;BME280;59852;43.086;25.634;2022-10-22T05:32:10;99447.09;;;11.35;56.80
58668;BME280;59852;43.086;25.634;2022-10-22T05:34:35;99453.69;;;11.55;58.28
58668;BME280;59852;43.086;25.634;2022-10-22T05:37:01;99450.91;;;11.85;57.27
58668;BME280;59852;43.086;25.634;2022-10-22T05:39:26;99447.16;;;12.42;54.96
58668;BME280;59852;43.086;25.634;2022-10-22T05:41:52;99455.81;;;13.06;54.02
58668;BME280;59852;43.086;25.634;2022-10-22T05:44:18;99455.66;;;14.17;51.22
58668;BME280;59852;43.086;25.634;2022-10-22T05:46:43;99461.47;;;13.86;49.41
58668;BME280;59852;43.086;25.634;2022-10-22T05:49:10;99470.75;;;13.05;51.61
58668;BME280;59852;43.086;25.634;2022-10-22T05:51:36;99473.66;;;15.91;44.73
58668;BME280;59852;43.086;25.634;2022-10-22T05:54:02;99465.75;;;16.44;43.17
58668;BME280;59852;43.086;25.634;2022-10-22T05:56:29;99488.06;;;13.70;51.49
58668;BME280;59852;43.086;25.634;2022-10-22T05:58:56;99485.66;;;13.67;52.69
58668;BME280;59852;43.086;25.634;2022-10-22T06:01:26;99479.56;;;13.04;52.18
58668;BME280;59852;43.086;25.634;2022-10-22T06:03:52;99482.00;;;12.69;55.41
58668;BME280;59852;43.086;25.634;2022-10-22T06:06:19;99483.41;;;12.10;54.67
58668;BME280;59852;43.086;25.634;2022-10-22T06:08:46;99484.91;;;11.99;56.12
58668;BME280;59852;43.086;25.634;2022-10-22T06:11:12;99482.34;;;11.85;58.84
58668;BME280;59852;43.086;25.634;2022-10-22T06:13:37;99487.94;;;11.79;59.42
58668;BME280;59852;43.086;25.634;2022-10-22T06:16:03;99479.66;;;11.72;57.77
58668;BME280;59852;43.086;25.634;2022-10-22T06:18:28;99479.78;;;11.57;57.68
58668;BME280;59852;43.086;25.634;2022-10-22T06:20:53;99479.84;;;11.28;59.06
58668;BME280;59852;43.086;25.634;2022-10-22T06:23:19;99479.47;;;11.34;61.05
58668;BME280;59852;43.086;25.634;2022-10-22T06:25:54;99487.84;;;11.39;58.95
58668;BME280;59852;43.086;25.634;2022-10-22T06:28:19;99493.66;;;11.44;57.55
58668;BME280;59852;43.086;25.634;2022-10-22T06:30:45;99483.81;;;11.62;60.12
58668;BME280;59852;43.086;25.634;2022-10-22T06:33:13;99490.44;;;11.82;55.82
58668;BME280;59852;43.086;25.634;2022-10-22T06:35:38;99487.84;;;11.95;54.96
58668;BME280;59852;43.086;25.634;2022-10-22T06:38:04;99490.56;;;11.93;55.67
58668;BME280;59852;43.086;25.634;2022-10-22T06:40:31;99489.94;;;11.90;56.32
58668;BME280;59852;43.086;25.634;2022-10-22T06:42:58;99483.56;;;12.06;56.40
58668;BME280;59852;43.086;25.634;2022-10-22T06:45:23;99481.63;;;12.23;55.53
58668;BME280;59852;43.086;25.634;2022-10-22T06:47:49;99481.78;;;12.07;56.06
58668;BME280;59852;43.086;25.634;2022-10-22T06:50:15;99483.56;;;12.06;56.31
58668;BME280;59852;43.086;25.634;2022-10-22T06:52:40;99485.34;;;12.06;57.08
58668;BME280;59852;43.086;25.634;2022-10-22T06:55:06;99493.81;;;12.37;56.16
58668;BME280;59852;43.086;25.634;2022-10-22T06:57:31;99490.59;;;12.58;54.62
58668;BME280;59852;43.086;25.634;2022-10-22T06:59:56;99480.81;;;12.48;55.09
58668;BME280;59852;43.086;25.634;2022-10-22T07:02:22;99484.16;;;12.37;55.50
58668;BME280;59852;43.086;25.634;2022-10-22T07:04:47;99484.69;;;12.29;56.26
58668;BME280;59852;43.086;25.634;2022-10-22T07:07:12;99488.44;;;12.25;56.08
58668;BME280;59852;43.086;25.634;2022-10-22T07:09:39;99491.28;;;12.22;56.90
58668;BME280;59852;43.086;25.634;2022-10-22T07:12:04;99483.09;;;12.27;55.68
58668;BME280;59852;43.086;25.634;2022-10-22T07:14:30;99476.91;;;12.28;56.64
58668;BME280;59852;43.086;25.634;2022-10-22T07:16:55;99479.75;;;12.25;56.26
58668;BME280;59852;43.086;25.634;2022-10-22T07:19:21;99485.44;;;12.31;57.94
58668;BME280;59852;43.086;25.634;2022-10-22T07:21:46;99487.72;;;12.36;56.44
58668;BME280;59852;43.086;25.634;2022-10-22T07:24:11;99488.50;;;12.51;55.06
58668;BME280;59852;43.086;25.634;2022-10-22T07:26:37;99489.66;;;12.72;54.47
58668;BME280;59852;43.086;25.634;2022-10-22T07:29:02;99479.50;;;12.80;53.12
58668;BME280;59852;43.086;25.634;2022-10-22T07:31:28;99472.78;;;12.89;54.20
58668;BME280;59852;43.086;25.634;2022-10-22T07:33:53;99476.22;;;12.89;53.42
58668;BME280;59852;43.086;25.634;2022-10-22T07:36:19;99473.28;;;12.81;56.12
58668;BME280;59852;43.086;25.634;2022-10-22T07:38:45;99471.16;;;12.86;53.95
58668;BME280;59852;43.086;25.634;2022-10-22T07:41:11;99473.56;;;13.64;53.55
58668;BME280;59852;43.086;25.634;2022-10-22T07:43:36;99458.91;;;15.12;52.31
58668;BME280;59852;43.086;25.634;2022-10-22T07:46:02;99462.28;;;14.80;48.40
58668;BME280;59852;43.086;25.634;2022-10-22T07:48:27;99470.41;;;14.31;47.62
58668;BME280;59852;43.086;25.634;2022-10-22T07:50:53;99455.34;;;14.44;47.72
58668;BME280;59852;43.086;25.634;2022-10-22T07:53:18;99448.53;;;14.42;49.13
58668;BME280;59852;43.086;25.634;2022-10-22T07:55:48;99443.13;;;14.32;49.22
58668;BME280;59852;43.086;25.634;2022-10-22T07:58:14;99437.16;;;14.41;52.79
58668;BME280;59852;43.086;25.634;2022-10-22T08:00:40;99434.69;;;13.81;50.16
58668;BME280;59852;43.086;25.634;2022-10-22T08:03:05;99438.56;;;13.88;52.72
58668;BME280;59852;43.086;25.634;2022-10-22T08:05:30;99438.44;;;13.89;50.93
58668;BME280;59852;43.086;25.634;2022-10-22T08:07:56;99434.47;;;13.84;55.98
58668;BME280;59852;43.086;25.634;2022-10-22T08:10:21;99434.03;;;13.90;53.70
58668;BME280;59852;43.086;25.634;2022-10-22T08:12:46;99432.84;;;13.94;51.48
58668;BME280;59852;43.086;25.634;2022-10-22T08:15:12;99416.91;;;14.19;50.06
58668;BME280;59852;43.086;25.634;2022-10-22T08:17:37;99417.16;;;14.16;49.97
58668;BME280;59852;43.086;25.634;2022-10-22T08:20:02;99420.94;;;14.12;49.78
58668;BME280;59852;43.086;25.634;2022-10-22T08:22:28;99419.88;;;14.15;50.18
58668;BME280;59852;43.086;25.634;2022-10-22T08:24:53;99413.78;;;14.14;50.99
58668;BME280;59852;43.086;25.634;2022-10-22T08:27:19;99418.59;;;14.20;51.35
58668;BME280;59852;43.086;25.634;2022-10-22T08:29:44;99413.59;;;14.40;50.85
58668;BME280;59852;43.086;25.634;2022-10-22T08:32:09;99405.00;;;14.38;49.13
58668;BME280;59852;43.086;25.634;2022-10-22T08:34:35;99399.47;;;14.41;48.21
58668;BME280;59852;43.086;25.634;2022-10-22T08:37:00;99403.97;;;14.51;48.80
58668;BME280;59852;43.086;25.634;2022-10-22T08:39:26;99406.47;;;14.53;48.50
58668;BME280;59852;43.086;25.634;2022-10-22T08:42:04;99406.53;;;14.40;48.76
58668;BME280;59852;43.086;25.634;2022-10-22T08:49:41;99395.31;;;14.38;49.13
58668;BME280;59852;43.086;25.634;2022-10-22T08:52:08;99409.41;;;14.37;48.11
58668;BME280;59852;43.086;25.634;2022-10-22T09:02:13;99390.34;;;14.57;48.05
58668;BME280;59852;43.086;25.634;2022-10-22T09:04:44;99385.19;;;14.56;49.62
58668;BME280;59852;43.086;25.634;2022-10-22T09:07:12;99388.28;;;14.50;48.81
58668;BME280;59852;43.086;25.634;2022-10-22T09:09:39;99387.00;;;14.67;47.89
58668;BME280;59852;43.086;25.634;2022-10-22T09:12:06;99391.16;;;14.80;48.13
58668;BME280;59852;43.086;25.634;2022-10-22T09:14:34;99397.25;;;14.92;46.67
58668;BME280;59852;43.086;25.634;2022-10-22T09:22:21;99391.97;;;15.03;46.51
58668;BME280;59852;43.086;25.634;2022-10-22T09:24:53;99395.94;;;15.09;45.16
58668;BME280;59852;43.086;25.634;2022-10-22T09:27:26;99387.88;;;15.21;45.45
58668;BME280;59852;43.086;25.634;2022-10-22T09:29:52;99382.56;;;15.33;44.47
58668;BME280;59852;43.086;25.634;2022-10-22T09:32:17;99378.38;;;15.41;44.77
58668;BME280;59852;43.086;25.634;2022-10-22T09:34:46;99372.19;;;15.95;43.59
58668;BME280;59852;43.086;25.634;2022-10-22T09:37:13;99367.88;;;15.94;42.94
58668;BME280;59852;43.086;25.634;2022-10-22T09:39:44;99369.56;;;16.16;43.56
58668;BME280;59852;43.086;25.634;2022-10-22T09:42:10;99364.78;;;16.31;43.90
58668;BME280;59852;43.086;25.634;2022-10-22T09:44:38;99366.41;;;16.22;43.46
58668;BME280;59852;43.086;25.634;2022-10-22T09:47:06;99366.50;;;16.21;42.80
58668;BME280;59852;43.086;25.634;2022-10-22T09:49:43;99368.13;;;16.33;43.48
58668;BME280;59852;43.086;25.634;2022-10-22T09:52:21;99357.13;;;16.07;43.44
58668;BME280;59852;43.086;25.634;2022-10-22T09:54:48;99357.31;;;16.36;43.73
58668;BME280;59852;43.086;25.634;2022-10-22T09:57:17;99354.53;;;16.38;42.49
58668;BME280;59852;43.086;25.634;2022-10-22T09:59:47;99345.25;;;16.43;42.13
58668;BME280;59852;43.086;25.634;2022-10-22T10:02:14;99346.19;;;16.63;41.89
58668;BME280;59852;43.086;25.634;2022-10-22T10:04:41;99338.31;;;16.42;42.19
58668;BME280;59852;43.086;25.634;2022-10-22T10:07:17;99331.19;;;16.33;41.73
58668;BME280;59852;43.086;25.634;2022-10-22T10:09:43;99334.66;;;16.64;42.29
58668;BME280;59852;43.086;25.634;2022-10-22T10:17:32;99317.38;;;16.90;41.57
58668;BME280;59852;43.086;25.634;2022-10-22T10:20:12;99324.38;;;17.01;41.41
58668;BME280;59852;43.086;25.634;2022-10-22T10:22:56;99312.19;;;16.79;41.52
58668;BME280;59852;43.086;25.634;2022-10-22T10:28:00;99313.56;;;17.43;40.06
58668;BME280;59852;43.086;25.634;2022-10-22T10:30:26;99307.28;;;17.25;40.84
58668;BME280;59852;43.086;25.634;2022-10-22T10:38:18;99304.09;;;17.40;41.28
58668;BME280;59852;43.086;25.634;2022-10-22T10:40:56;99301.84;;;17.26;40.33
58668;BME280;59852;43.086;25.634;2022-10-22T11:07:04;99279.28;;;17.99;37.08
58668;BME280;59852;43.086;25.634;2022-10-22T11:09:37;99265.13;;;17.71;37.45
58668;BME280;59852;43.086;25.634;2022-10-22T11:12:04;99265.41;;;18.52;36.24
58668;BME280;59852;43.086;25.634;2022-10-22T11:14:31;99258.75;;;18.11;37.51
58668;BME280;59852;43.086;25.634;2022-10-22T11:17:34;99255.53;;;18.08;38.02
58668;BME280;59852;43.086;25.634;2022-10-22T11:22:19;99252.38;;;18.04;36.95
58668;BME280;59852;43.086;25.634;2022-10-22T11:30:13;99241.03;;;18.21;37.23
58668;BME280;59852;43.086;25.634;2022-10-22T11:32:40;99238.41;;;18.12;36.34
58668;BME280;59852;43.086;25.634;2022-10-22T11:35:08;99233.16;;;18.02;37.14
58668;BME280;59852;43.086;25.634;2022-10-22T11:37:36;99223.41;;;18.85;35.85
58668;BME280;59852;43.086;25.634;2022-10-22T11:42:32;99214.44;;;18.13;36.81
58668;BME280;59852;43.086;25.634;2022-10-22T11:45:05;99206.16;;;18.26;36.61
58668;BME280;59852;43.086;25.634;2022-10-22T11:47:40;99208.13;;;18.24;37.22
58668;BME280;59852;43.086;25.634;2022-10-22T11:50:17;99203.84;;;18.41;36.30
58668;BME280;59852;43.086;25.634;2022-10-22T11:55:30;99195.13;;;18.30;34.93
58668;BME280;59852;43.086;25.634;2022-10-22T11:57:58;99189.09;;;18.11;35.26
58668;BME280;59852;43.086;25.634;2022-10-22T12:00:40;99198.56;;;18.13;34.15
58668;BME280;59852;43.086;25.634;2022-10-22T12:05:42;99195.44;;;18.18;33.53
58668;BME280;59852;43.086;25.634;2022-10-22T12:08:14;99187.56;;;19.34;31.11
58668;BME280;59852;43.086;25.634;2022-10-22T12:13:26;99182.53;;;18.42;33.32
58668;BME280;59852;43.086;25.634;2022-10-22T12:15:53;99174.28;;;18.63;33.56
58668;BME280;59852;43.086;25.634;2022-10-22T12:18:18;99172.41;;;18.28;34.94
58668;BME280;59852;43.086;25.634;2022-10-22T12:20:51;99176.84;;;18.10;33.81
58668;BME280;59852;43.086;25.634;2022-10-22T12:23:16;99171.41;;;18.39;33.83
58668;BME280;59852;43.086;25.634;2022-10-22T12:25:42;99177.63;;;18.20;34.10
58668;BME280;59852;43.086;25.634;2022-10-22T12:28:09;99169.59;;;18.12;33.83
58668;BME280;59852;43.086;25.634;2022-10-22T12:30:36;99164.81;;;18.15;33.59
58668;BME280;59852;43.086;25.634;2022-10-22T12:33:02;99155.03;;;18.43;33.43
58668;BME280;59852;43.086;25.634;2022-10-22T12:35:29;99154.28;;;18.05;34.19
58668;BME280;59852;43.086;25.634;2022-10-22T12:37:55;99153.84;;;18.10;33.94
58668;BME280;59852;43.086;25.634;2022-10-22T12:40:39;99153.28;;;18.34;33.52
58668;BME280;59852;43.086;25.634;2022-10-22T12:46:10;99145.44;;;18.15;34.54
58668;BME280;59852;43.086;25.634;2022-10-22T12:48:38;99144.97;;;18.01;34.24
58668;BME280;59852;43.086;25.634;2022-10-22T12:51:04;99138.75;;;18.20;35.62
58668;BME280;59852;43.086;25.634;2022-10-22T12:53:35;99150.38;;;18.10;34.41
58668;BME280;59852;43.086;25.634;2022-10-22T12:56:06;99144.50;;;18.33;34.00
58668;BME280;59852;43.086;25.634;2022-10-22T12:58:39;99137.16;;;18.27;34.80
58668;BME280;59852;43.086;25.634;2022-10-22T13:01:05;99141.63;;;18.27;34.48
58668;BME280;59852;43.086;25.634;2022-10-22T13:03:34;99140.38;;;18.49;34.17
58668;BME280;59852;43.086;25.634;2022-10-22T13:08:42;99134.16;;;18.58;33.40
58668;BME280;59852;43.086;25.634;2022-10-22T13:11:09;99130.19;;;18.26;34.53
58668;BME280;59852;43.086;25.634;2022-10-22T13:16:13;99132.88;;;18.44;34.06
58668;BME280;59852;43.086;25.634;2022-10-22T13:18:39;99134.78;;;18.52;32.28
58668;BME280;59852;43.086;25.634;2022-10-22T13:21:05;99133.97;;;18.24;33.31
58668;BME280;59852;43.086;25.634;2022-10-22T13:23:31;99135.00;;;18.41;32.53
58668;BME280;59852;43.086;25.634;2022-10-22T13:25:58;99135.91;;;18.49;32.00
58668;BME280;59852;43.086;25.634;2022-10-22T13:28:24;99136.03;;;18.30;32.44
58668;BME280;59852;43.086;25.634;2022-10-22T13:30:51;99131.69;;;18.11;33.34
58668;BME280;59852;43.086;25.634;2022-10-22T13:33:21;99130.88;;;18.28;32.46
58668;BME280;59852;43.086;25.634;2022-10-22T13:35:47;99129.50;;;18.24;32.73
58668;BME280;59852;43.086;25.634;2022-10-22T13:38:23;99119.72;;;18.52;32.07
58668;BME280;59852;43.086;25.634;2022-10-22T13:40:49;99121.84;;;18.67;32.22
58668;BME280;59852;43.086;25.634;2022-10-22T13:43:15;99126.13;;;18.32;33.48
58668;BME280;59852;43.086;25.634;2022-10-22T13:45:41;99128.47;;;18.35;35.14
58668;BME280;59852;43.086;25.634;2022-10-22T13:48:11;99125.22;;;18.41;34.99
58668;BME280;59852;43.086;25.634;2022-10-22T13:50:37;99120.38;;;18.54;34.81
58668;BME280;59852;43.086;25.634;2022-10-22T13:53:02;99121.75;;;18.41;35.27
58668;BME280;59852;43.086;25.634;2022-10-22T13:55:29;99116.72;;;18.38;36.08
58668;BME280;59852;43.086;25.634;2022-10-22T13:57:56;99105.31;;;18.37;35.62
58668;BME280;59852;43.086;25.634;2022-10-22T14:00:22;99104.13;;;18.49;35.57
58668;BME280;59852;43.086;25.634;2022-10-22T14:02:49;99103.16;;;18.50;35.61
58668;BME280;59852;43.086;25.634;2022-10-22T14:05:16;99105.63;;;18.34;35.87
58668;BME280;59852;43.086;25.634;2022-10-22T14:07:42;99111.00;;;18.42;35.98
58668;BME280;59852;43.086;25.634;2022-10-22T14:10:14;99108.41;;;18.32;36.51
58668;BME280;59852;43.086;25.634;2022-10-22T14:12:40;99106.84;;;18.40;37.14
58668;BME280;59852;43.086;25.634;2022-10-22T14:15:06;99108.34;;;18.24;37.66
58668;BME280;59852;43.086;25.634;2022-10-22T14:17:31;99105.09;;;18.30;37.18
58668;BME280;59852;43.086;25.634;2022-10-22T14:19:57;99102.78;;;18.18;37.71
58668;BME280;59852;43.086;25.634;2022-10-22T14:22:22;99100.09;;;18.27;37.86
58668;BME280;59852;43.086;25.634;2022-10-22T14:24:49;99101.63;;;18.30;38.71
58668;BME280;59852;43.086;25.634;2022-10-22T14:27:16;99096.22;;;18.22;38.94
58668;BME280;59852;43.086;25.634;2022-10-22T14:29:41;99095.88;;;18.07;38.60
58668;BME280;59852;43.086;25.634;2022-10-22T14:32:14;99094.91;;;18.08;38.50